Lane, South Carolina
Current Conditions -  °F | °C
As of 3:15 PM on Sunday 23 Nov 2014 (Local Time) from KCKI Reporting Station
Moderate Rain Moderate Rain  
Wind Chill: 64°   Ceiling: NA
Heat Index: 64°   Visibility: 5mi
Dew Point: 64°   Wind: 10mph
Humidity: 100%   Direction: 90°E
Pressure: 29.93"   Gusts: 17mph
Location:  33.52°N, 79.88°W
Report Text: KCKI 232015Z AUTO 09009G15KT 5SM RA 18/18 A2993 RMK AO2
Loading
Personal Weather Stations






























Interactive Weather Map New forecast layout! Learn more

10-Day Weather Forecast

Advertisements
Track Severe Weather on mobile